createdAt,value
2022-11-04T00:01:40.337Z,12.29
2022-11-04T00:04:08.584Z,12.34
2022-11-04T00:06:37.250Z,12.40
2022-11-04T00:09:08.626Z,12.53
2022-11-04T00:11:54.389Z,12.51
2022-11-04T00:14:22.969Z,12.63
2022-11-04T00:17:08.340Z,12.60
2022-11-04T00:19:50.098Z,12.46
2022-11-04T00:22:35.210Z,12.57
2022-11-04T00:25:22.488Z,12.73
2022-11-04T00:28:08.442Z,12.55
2022-11-04T00:30:36.598Z,12.44
2022-11-04T00:33:22.134Z,12.28
2022-11-04T00:35:50.637Z,12.27
2022-11-04T00:38:19.004Z,12.32
2022-11-04T00:40:48.323Z,12.36
2022-11-04T00:43:16.395Z,12.34
2022-11-04T00:45:44.373Z,12.37
2022-11-04T00:48:12.586Z,12.05
2022-11-04T00:50:40.699Z,12.10
2022-11-04T00:53:09.080Z,12.23
2022-11-04T00:55:37.240Z,12.22
2022-11-04T00:58:06.515Z,12.27
2022-11-04T01:00:34.430Z,12.34
2022-11-04T01:03:02.367Z,12.47
2022-11-04T01:05:30.378Z,12.48
2022-11-04T01:07:58.646Z,12.25
2022-11-04T01:10:26.546Z,12.25
2022-11-04T01:12:54.482Z,12.17
2022-11-04T01:15:23.822Z,12.21
2022-11-04T01:17:51.889Z,12.22
2022-11-04T01:20:20.338Z,12.25
2022-11-04T01:22:48.238Z,11.90
2022-11-04T01:25:16.282Z,11.83
2022-11-04T01:27:44.276Z,11.69
2022-11-04T01:30:13.286Z,11.75
2022-11-04T01:32:42.631Z,11.75
2022-11-04T01:35:11.423Z,11.65
2022-11-04T01:37:39.405Z,11.77
2022-11-04T01:40:08.505Z,11.76
2022-11-04T01:42:36.404Z,11.62
2022-11-04T01:45:04.496Z,11.72
2022-11-04T01:47:38.284Z,11.83
2022-11-04T01:50:12.538Z,12.04
2022-11-04T01:52:46.927Z,12.12
2022-11-04T01:55:18.170Z,11.94
2022-11-04T01:57:49.725Z,11.86
2022-11-04T02:00:18.307Z,11.97
2022-11-04T02:02:55.758Z,12.09
2022-11-04T02:05:25.188Z,12.01
2022-11-04T02:07:57.905Z,11.99
2022-11-04T02:10:28.942Z,12.15
2022-11-04T02:12:58.281Z,12.11
2022-11-04T02:15:36.299Z,12.04
2022-11-04T02:18:18.913Z,11.96
2022-11-04T02:21:20.562Z,12.14
2022-11-04T02:24:10.231Z,12.31
2022-11-04T02:27:16.724Z,12.40
2022-11-04T02:30:05.012Z,12.04
2022-11-04T02:32:47.770Z,12.01
2022-11-04T02:35:24.881Z,12.20
2022-11-04T02:38:02.391Z,12.34
2022-11-04T02:40:37.407Z,12.32
2022-11-04T02:43:14.295Z,12.34
2022-11-04T02:45:47.995Z,12.33
2022-11-04T02:48:26.038Z,12.23
2022-11-04T02:50:59.779Z,12.25
2022-11-04T02:53:33.786Z,12.15
2022-11-04T02:56:04.265Z,12.07
2022-11-04T02:58:36.743Z,12.19
2022-11-04T03:01:09.320Z,12.20
2022-11-04T03:03:41.295Z,12.12
2022-11-04T03:06:12.206Z,12.21
2022-11-04T03:08:42.401Z,12.17
2022-11-04T03:11:14.943Z,12.11
2022-11-04T03:13:48.211Z,11.96
2022-11-04T03:16:21.585Z,12.01
2022-11-04T03:19:00.320Z,11.95
2022-11-04T03:21:32.449Z,12.01
2022-11-04T03:24:02.067Z,11.91
2022-11-04T03:26:33.599Z,11.96
2022-11-04T03:29:09.173Z,11.98
2022-11-04T03:31:46.820Z,12.03
2022-11-04T03:34:14.883Z,12.15
2022-11-04T03:36:43.000Z,12.26
2022-11-04T03:39:11.435Z,12.28
2022-11-04T03:41:45.503Z,12.14
2022-11-04T03:44:13.543Z,12.05
2022-11-04T03:46:43.582Z,11.89
2022-11-04T03:49:13.505Z,11.82
2022-11-04T03:51:41.417Z,11.84
2022-11-04T03:54:09.828Z,11.80
2022-11-04T03:56:57.376Z,11.73
2022-11-04T03:59:47.584Z,11.61
2022-11-04T04:02:21.595Z,11.78
2022-11-04T04:04:57.426Z,11.82
2022-11-04T04:07:31.404Z,11.63
2022-11-04T04:10:25.630Z,11.94
2022-11-04T04:12:57.256Z,12.01
2022-11-04T04:15:30.705Z,11.99
2022-11-04T04:18:04.491Z,12.09
2022-11-04T04:20:36.652Z,12.23
2022-11-04T04:23:28.583Z,11.99
2022-11-04T04:26:18.204Z,11.85
2022-11-04T04:28:47.970Z,12.07
2022-11-04T04:31:39.320Z,12.21
2022-11-04T04:34:09.347Z,11.97
2022-11-04T04:36:45.350Z,11.92
2022-11-04T04:39:33.619Z,11.84
2022-11-04T04:42:19.299Z,12.02
2022-11-04T04:45:03.417Z,11.89
2022-11-04T04:47:40.902Z,11.92
2022-11-04T04:50:12.418Z,12.09
2022-11-04T04:52:43.231Z,11.94
2022-11-04T04:55:12.475Z,11.91
2022-11-04T04:57:41.155Z,11.58
2022-11-04T05:00:12.860Z,11.56
2022-11-04T05:02:40.908Z,11.75
2022-11-04T05:05:11.286Z,11.53
2022-11-04T05:07:39.256Z,11.38
2022-11-04T05:10:08.331Z,11.50
2022-11-04T05:12:54.294Z,11.62
2022-11-04T05:15:22.449Z,11.68
2022-11-04T05:17:55.677Z,11.59
2022-11-04T05:20:25.311Z,11.70
2022-11-04T05:22:53.397Z,11.57
2022-11-04T05:25:21.365Z,11.61
2022-11-04T05:27:49.280Z,11.59
2022-11-04T05:30:17.414Z,11.47
2022-11-04T05:32:45.330Z,11.39
2022-11-04T05:35:13.298Z,11.38
2022-11-04T05:37:42.567Z,11.61
2022-11-04T05:40:11.629Z,11.71
2022-11-04T05:42:39.601Z,11.61
2022-11-04T05:45:08.485Z,11.44
2022-11-04T05:47:36.533Z,11.51
2022-11-04T05:50:04.922Z,11.41
2022-11-04T05:52:32.969Z,11.43
2022-11-04T05:55:02.365Z,11.29
2022-11-04T05:57:30.288Z,10.99
2022-11-04T05:59:58.216Z,10.79
2022-11-04T06:02:26.298Z,10.88
2022-11-04T06:04:54.484Z,10.92
2022-11-04T06:07:22.356Z,10.75
2022-11-04T06:09:50.326Z,10.72
2022-11-04T06:12:19.708Z,10.82
2022-11-04T06:14:47.607Z,10.83
2022-11-04T06:17:17.111Z,10.76
2022-11-04T06:19:45.181Z,10.69
2022-11-04T06:22:14.402Z,10.77
2022-11-04T06:24:42.847Z,10.87
2022-11-04T06:27:11.510Z,10.84
2022-11-04T06:29:41.732Z,10.94
2022-11-04T06:32:09.835Z,10.83
2022-11-04T06:34:37.912Z,10.89
2022-11-04T06:37:06.181Z,11.02
2022-11-04T06:39:34.600Z,11.01
2022-11-04T06:42:03.145Z,10.77
2022-11-04T06:44:31.432Z,10.62
2022-11-04T06:47:00.730Z,10.53
2022-11-04T06:49:28.906Z,10.49
2022-11-04T06:51:56.861Z,10.51
2022-11-04T06:54:24.786Z,10.49
2022-11-04T06:56:52.698Z,10.61
2022-11-04T06:59:22.286Z,10.42
2022-11-04T07:01:51.984Z,10.37
2022-11-04T07:04:21.451Z,10.36
2022-11-04T07:06:49.498Z,10.47
2022-11-04T07:09:18.376Z,10.56
2022-11-04T07:11:47.069Z,10.62
2022-11-04T07:14:15.021Z,10.71
2022-11-04T07:16:42.923Z,10.78
2022-11-04T07:19:10.965Z,10.76
2022-11-04T07:21:40.357Z,10.99
2022-11-04T07:24:08.495Z,10.83
2022-11-04T07:26:39.197Z,10.80
2022-11-04T07:29:07.080Z,10.82
2022-11-04T07:31:35.062Z,10.86
2022-11-04T07:34:03.231Z,10.61
2022-11-04T07:36:31.410Z,10.52
2022-11-04T07:39:01.057Z,10.19
2022-11-04T07:41:29.601Z,10.14
2022-11-04T07:43:58.931Z,9.91
2022-11-04T07:46:26.929Z,9.84
2022-11-04T07:48:58.629Z,10.02
2022-11-04T07:51:27.632Z,10.08
2022-11-04T07:53:56.843Z,10.14
2022-11-04T07:56:26.646Z,9.99
2022-11-04T07:58:54.901Z,9.93
2022-11-04T08:01:24.968Z,9.89
2022-11-04T08:03:53.697Z,9.96
2022-11-04T08:06:22.616Z,9.82
2022-11-04T08:08:54.157Z,10.08
2022-11-04T08:11:25.301Z,10.33
2022-11-04T08:13:55.447Z,10.35
2022-11-04T08:16:31.487Z,10.41
2022-11-04T08:19:02.365Z,10.43
2022-11-04T08:21:31.742Z,10.41
2022-11-04T08:23:59.859Z,10.46
2022-11-04T08:26:27.809Z,10.24
2022-11-04T08:28:57.367Z,10.52
2022-11-04T08:31:26.710Z,10.48
2022-11-04T08:33:56.189Z,10.64
2022-11-04T08:36:26.213Z,10.69
2022-11-04T08:38:55.113Z,10.70
2022-11-04T08:41:25.619Z,10.69
2022-11-04T08:43:54.480Z,10.77
2022-11-04T08:46:23.877Z,10.92
2022-11-04T08:48:51.930Z,10.85
2022-11-04T08:51:22.304Z,10.83
2022-11-04T08:53:50.397Z,10.55
2022-11-04T08:56:20.982Z,10.65
2022-11-04T08:58:50.081Z,10.59
2022-11-04T09:01:20.806Z,10.67
2022-11-04T09:03:51.160Z,10.69
2022-11-04T09:06:21.152Z,10.63
2022-11-04T09:08:50.217Z,10.68
2022-11-04T09:11:18.466Z,10.43
2022-11-04T09:13:46.415Z,10.57
2022-11-04T09:16:15.551Z,10.59
2022-11-04T09:18:43.842Z,10.65
2022-11-04T09:21:13.488Z,10.86
2022-11-04T09:23:41.634Z,10.98
2022-11-04T09:26:13.025Z,11.32
2022-11-04T09:28:41.511Z,11.64
2022-11-04T09:31:12.206Z,11.90
2022-11-04T09:33:40.228Z,12.25
2022-11-04T09:36:09.291Z,12.41
2022-11-04T09:38:39.248Z,12.86
2022-11-04T09:41:26.259Z,13.16
2022-11-04T09:44:05.062Z,13.26
2022-11-04T09:46:35.502Z,13.19
2022-11-04T09:49:07.346Z,13.22
2022-11-04T09:54:28.382Z,13.09
2022-11-04T09:57:00.741Z,12.89
2022-11-04T09:59:33.072Z,13.05
2022-11-04T10:02:24.414Z,13.01
2022-11-04T10:05:04.888Z,13.05
2022-11-04T10:07:45.329Z,13.22
2022-11-04T10:10:23.194Z,13.62
2022-11-04T10:13:07.407Z,14.00
2022-11-04T10:15:48.874Z,14.23
2022-11-04T10:18:35.252Z,13.84
2022-11-04T10:21:13.350Z,13.60
2022-11-04T10:23:46.053Z,13.77
2022-11-04T10:26:19.359Z,14.27
2022-11-04T10:28:51.186Z,14.33
2022-11-04T10:31:20.208Z,14.30
2022-11-04T10:33:53.002Z,14.48
2022-11-04T10:36:22.389Z,14.54
2022-11-04T10:38:52.423Z,14.51
2022-11-04T10:41:29.352Z,14.61
2022-11-04T10:44:02.767Z,14.28
2022-11-04T10:46:41.626Z,14.23
2022-11-04T10:49:38.264Z,14.41
2022-11-04T10:52:07.823Z,14.36
2022-11-04T10:54:41.197Z,14.37
2022-11-04T10:57:12.073Z,14.23
2022-11-04T10:59:51.409Z,14.37
2022-11-04T11:02:19.980Z,14.39
2022-11-04T11:04:49.392Z,14.00
2022-11-04T11:07:23.637Z,14.00
2022-11-04T11:09:56.963Z,14.17
2022-11-04T11:12:51.675Z,14.36
2022-11-04T11:15:30.338Z,14.37
2022-11-04T11:18:02.267Z,14.73
2022-11-04T11:20:32.482Z,14.58
2022-11-04T11:23:04.797Z,14.76
2022-11-04T11:25:34.304Z,15.20
2022-11-04T11:28:06.891Z,15.31
2022-11-04T11:30:42.164Z,14.96
2022-11-04T11:33:19.198Z,15.01
2022-11-04T11:35:54.297Z,14.85
2022-11-04T11:38:24.721Z,14.78
2022-11-04T11:41:23.421Z,14.79
2022-11-04T11:43:52.098Z,14.77
2022-11-04T11:46:23.787Z,14.74
2022-11-04T11:48:53.940Z,14.95
2022-11-04T11:51:31.507Z,14.83
2022-11-04T11:54:16.822Z,15.24
2022-11-04T11:57:11.837Z,15.32
2022-11-04T12:02:45.726Z,14.47
2022-11-04T12:11:19.917Z,12.61
2022-11-04T12:13:53.401Z,12.38
2022-11-04T12:16:33.745Z,12.24
2022-11-04T12:19:31.577Z,12.38
2022-11-04T12:22:06.297Z,12.69
2022-11-04T12:24:45.091Z,12.99
2022-11-04T12:27:21.794Z,12.87
2022-11-04T12:30:04.476Z,12.97
2022-11-04T12:32:45.319Z,13.14
2022-11-04T12:35:27.282Z,13.36
2022-11-04T12:38:08.820Z,13.36
2022-11-04T12:41:04.946Z,13.40
2022-11-04T12:43:41.167Z,13.65
2022-11-04T12:46:17.232Z,13.80
2022-11-04T12:49:06.014Z,13.92
2022-11-04T12:51:44.068Z,14.37
2022-11-04T12:54:38.392Z,14.55
2022-11-04T12:57:18.738Z,14.20
2022-11-04T12:59:59.458Z,13.89
2022-11-04T13:02:32.175Z,13.11
2022-11-04T13:05:09.507Z,12.55
2022-11-04T13:07:44.157Z,12.42
2022-11-04T13:10:20.731Z,12.54
2022-11-04T13:12:52.824Z,12.62
2022-11-04T13:15:24.038Z,12.95
2022-11-04T13:17:56.635Z,13.31
2022-11-04T13:20:35.581Z,13.94
2022-11-04T13:23:07.433Z,14.07
2022-11-04T13:25:41.071Z,14.46
2022-11-04T13:28:14.293Z,14.45
2022-11-04T13:30:48.367Z,14.73
2022-11-04T13:33:26.727Z,14.54
2022-11-04T13:36:04.286Z,14.56
2022-11-04T13:38:37.440Z,14.34
2022-11-04T13:41:23.082Z,14.23
2022-11-04T13:43:54.903Z,14.41
2022-11-04T13:46:30.603Z,14.53
2022-11-04T13:49:02.333Z,14.65
2022-11-04T13:51:39.373Z,14.85
2022-11-04T13:54:14.668Z,15.01
2022-11-04T13:56:43.350Z,15.02
2022-11-04T13:59:24.337Z,14.82
2022-11-04T14:02:40.673Z,14.48
2022-11-04T14:05:46.233Z,14.53
2022-11-04T14:08:17.130Z,14.59
2022-11-04T14:10:47.813Z,14.47
2022-11-04T14:13:44.915Z,14.28
2022-11-04T14:16:16.069Z,14.28
2022-11-04T14:18:46.027Z,14.24
2022-11-04T14:21:15.475Z,13.98
2022-11-04T14:23:47.680Z,13.40
2022-11-04T14:26:18.978Z,13.11
2022-11-04T14:28:51.855Z,12.89
2022-11-04T14:31:37.188Z,12.66
2022-11-04T14:34:06.455Z,12.78
2022-11-04T14:36:36.863Z,12.75
2022-11-04T14:39:20.933Z,12.85
2022-11-04T14:41:58.697Z,12.97
2022-11-04T14:44:32.342Z,13.37
2022-11-04T14:47:03.895Z,13.87
2022-11-04T14:49:41.487Z,14.16
2022-11-04T14:52:19.630Z,14.39
2022-11-04T14:54:50.486Z,14.73
2022-11-04T14:57:20.831Z,14.90
2022-11-04T14:59:49.978Z,14.97
2022-11-04T15:02:22.204Z,15.12
2022-11-04T15:04:53.998Z,14.83
2022-11-04T15:07:36.831Z,14.64
2022-11-04T15:10:21.574Z,14.71
2022-11-04T15:12:54.793Z,14.93
2022-11-04T15:15:32.226Z,14.98
2022-11-04T15:18:07.848Z,14.93
2022-11-04T15:20:41.202Z,14.70
2022-11-04T15:23:15.497Z,14.59
2022-11-04T15:25:50.081Z,14.29
2022-11-04T15:28:23.327Z,14.05
2022-11-04T15:31:03.709Z,13.82
2022-11-04T15:33:33.999Z,13.41
2022-11-04T15:36:02.386Z,13.37
2022-11-04T15:38:30.648Z,13.42
2022-11-04T15:41:20.762Z,13.58
2022-11-04T15:43:48.157Z,13.76
2022-11-04T15:46:20.697Z,13.92
2022-11-04T15:49:02.740Z,13.93
2022-11-04T15:51:35.396Z,14.16
2022-11-04T15:54:06.487Z,14.18
2022-11-04T15:56:41.980Z,14.22
2022-11-04T15:59:14.994Z,14.39
2022-11-04T16:01:48.041Z,14.29
2022-11-04T16:04:22.240Z,14.42
2022-11-04T16:07:24.674Z,14.59
2022-11-04T16:09:54.588Z,14.53
2022-11-04T16:12:37.425Z,14.07
2022-11-04T16:15:05.934Z,13.91
2022-11-04T16:17:34.407Z,13.77
2022-11-04T16:20:06.671Z,13.36
2022-11-04T16:22:37.229Z,13.49
2022-11-04T16:25:11.180Z,13.20
2022-11-04T16:27:41.731Z,13.16
2022-11-04T16:30:18.539Z,13.15
2022-11-04T16:32:48.995Z,13.21
2022-11-04T16:35:20.077Z,13.27
2022-11-04T16:37:48.036Z,13.34
2022-11-04T16:40:16.360Z,13.21
2022-11-04T16:42:46.945Z,13.16
2022-11-04T16:45:26.574Z,13.29
2022-11-04T16:47:55.149Z,13.22
2022-11-04T16:50:24.448Z,13.32
2022-11-04T16:52:52.921Z,13.42
2022-11-04T16:55:22.835Z,13.36
2022-11-04T16:57:58.941Z,13.42
2022-11-04T17:00:28.487Z,13.50
2022-11-04T17:02:56.408Z,13.34
2022-11-04T17:05:26.859Z,13.21
2022-11-04T17:08:00.204Z,12.99
2022-11-04T17:10:33.408Z,13.04
2022-11-04T17:13:02.813Z,12.88
2022-11-04T17:15:30.754Z,12.89
2022-11-04T17:17:58.646Z,12.91
2022-11-04T17:20:26.550Z,12.93
2022-11-04T17:22:54.468Z,13.11
2022-11-04T17:25:25.814Z,13.07
2022-11-04T17:27:54.436Z,13.08
2022-11-04T17:30:24.066Z,13.11
2022-11-04T17:32:52.397Z,13.02
2022-11-04T17:35:20.282Z,13.05
2022-11-04T17:37:53.536Z,13.14
2022-11-04T17:40:23.836Z,13.12
2022-11-04T17:43:12.319Z,13.08
2022-11-04T17:45:43.179Z,13.01
2022-11-04T17:48:14.164Z,12.90
2022-11-04T17:50:42.426Z,12.87
2022-11-04T17:53:10.845Z,12.91
2022-11-04T17:55:41.135Z,12.87
2022-11-04T17:58:09.076Z,12.71
2022-11-04T18:00:36.992Z,12.59
2022-11-04T18:03:09.014Z,12.73
2022-11-04T18:05:37.442Z,12.75
2022-11-04T18:08:05.739Z,12.50
2022-11-04T18:10:33.870Z,12.61
2022-11-04T18:13:01.031Z,12.71
2022-11-04T18:15:28.941Z,12.86
2022-11-04T18:17:57.396Z,12.75
2022-11-04T18:20:26.843Z,12.82
2022-11-04T18:22:54.815Z,12.94
2022-11-04T18:25:22.709Z,12.87
2022-11-04T18:27:50.640Z,12.90
2022-11-04T18:30:18.857Z,12.84
2022-11-04T18:32:46.726Z,12.89
2022-11-04T18:35:14.789Z,12.78
2022-11-04T18:37:47.216Z,12.87
2022-11-04T18:40:16.065Z,12.79
2022-11-04T18:42:44.265Z,12.77
2022-11-04T18:45:13.452Z,12.71
2022-11-04T18:47:41.345Z,12.82
2022-11-04T18:50:10.499Z,12.60
2022-11-04T18:52:38.424Z,12.59
2022-11-04T18:55:09.361Z,12.58
2022-11-04T18:57:37.282Z,12.64
2022-11-04T19:00:06.296Z,12.68
2022-11-04T19:02:34.323Z,12.69
2022-11-04T19:05:02.317Z,12.73
2022-11-04T19:07:30.225Z,12.68
2022-11-04T19:09:58.227Z,12.65
2022-11-04T19:12:44.877Z,12.70
2022-11-04T19:15:12.863Z,12.60
2022-11-04T19:17:40.872Z,12.60
2022-11-04T19:20:12.451Z,12.63
2022-11-04T19:22:41.086Z,12.71
2022-11-04T19:25:10.153Z,12.66
2022-11-04T19:27:39.629Z,12.67
2022-11-04T19:30:08.522Z,12.84
2022-11-04T19:32:36.462Z,12.57
2022-11-04T19:35:04.519Z,12.64
2022-11-04T19:37:33.411Z,12.69
2022-11-04T19:40:01.543Z,12.73
2022-11-04T19:42:47.374Z,12.64
2022-11-04T19:45:16.958Z,12.79
2022-11-04T19:47:45.507Z,12.78
2022-11-04T19:50:13.859Z,12.74
2022-11-04T19:52:42.933Z,12.55
2022-11-04T19:55:11.461Z,12.45
2022-11-04T19:57:39.651Z,12.60
2022-11-04T20:00:11.742Z,12.45
2022-11-04T20:02:41.383Z,12.43
2022-11-04T20:05:11.241Z,12.54
2022-11-04T20:07:39.839Z,12.41
2022-11-04T20:10:09.578Z,12.46
2022-11-04T20:12:55.777Z,12.57
2022-11-04T20:15:26.100Z,12.53
2022-11-04T20:17:55.583Z,12.61
2022-11-04T20:20:23.559Z,12.62
2022-11-04T20:22:52.155Z,12.58
2022-11-04T20:25:20.188Z,12.70
2022-11-04T20:27:48.273Z,12.75
2022-11-04T20:30:16.816Z,12.82
2022-11-04T20:32:44.900Z,12.90
2022-11-04T20:35:14.454Z,12.90
2022-11-04T20:37:43.218Z,12.84
2022-11-04T20:40:12.436Z,12.79
2022-11-04T20:42:47.863Z,12.74
2022-11-04T20:45:16.216Z,12.79
2022-11-04T20:47:44.315Z,12.77
2022-11-04T20:50:14.065Z,12.66
2022-11-04T20:52:42.015Z,12.67
2022-11-04T20:55:11.323Z,12.80
2022-11-04T20:57:39.316Z,12.87
2022-11-04T21:00:09.124Z,12.97
2022-11-04T21:02:38.167Z,12.94
2022-11-04T21:05:07.072Z,12.97
2022-11-04T21:07:38.424Z,12.96
2022-11-04T21:10:07.058Z,12.84
2022-11-04T21:12:35.240Z,12.74
2022-11-04T21:15:03.490Z,12.61
2022-11-04T21:17:33.905Z,12.60
2022-11-04T21:20:06.059Z,12.60
2022-11-04T21:22:35.208Z,12.53
2022-11-04T21:25:05.351Z,12.54
2022-11-04T21:27:33.686Z,12.47
2022-11-04T21:30:01.732Z,12.24
2022-11-04T21:32:31.295Z,12.08
2022-11-04T21:34:59.435Z,12.01
2022-11-04T21:37:27.410Z,12.06
2022-11-04T21:39:55.510Z,11.97
2022-11-04T21:42:25.022Z,12.02
2022-11-04T21:44:53.060Z,12.20
2022-11-04T21:47:22.160Z,12.30
2022-11-04T21:49:50.686Z,12.33
2022-11-04T21:52:18.776Z,12.31
2022-11-04T21:54:46.841Z,12.09
2022-11-04T21:57:15.101Z,12.12
2022-11-04T21:59:44.381Z,11.96
2022-11-04T22:02:12.520Z,11.56
2022-11-04T22:04:40.650Z,11.68
2022-11-04T22:07:08.708Z,11.75
2022-11-04T22:09:36.732Z,11.91
2022-11-04T22:12:05.125Z,12.02
2022-11-04T22:14:33.241Z,12.02
2022-11-04T22:17:02.875Z,12.09
2022-11-04T22:19:30.926Z,12.17
2022-11-04T22:21:58.971Z,12.15
2022-11-04T22:24:27.047Z,12.09
2022-11-04T22:26:55.143Z,12.19
2022-11-04T22:29:23.269Z,12.05
2022-11-04T22:31:51.432Z,12.06
2022-11-04T22:34:21.053Z,12.19
2022-11-04T22:36:49.069Z,12.23
2022-11-04T22:39:17.271Z,12.23
2022-11-04T22:41:46.316Z,12.34
2022-11-04T22:44:15.176Z,12.29
2022-11-04T22:46:43.571Z,12.26
2022-11-04T22:49:11.732Z,12.14
2022-11-04T22:51:41.063Z,12.18
2022-11-04T22:54:11.410Z,12.16
2022-11-04T22:56:39.393Z,12.10
2022-11-04T22:59:08.032Z,12.15
2022-11-04T23:01:36.437Z,12.19
2022-11-04T23:04:05.140Z,12.25
2022-11-04T23:06:33.188Z,12.20
2022-11-04T23:09:02.922Z,12.24
2022-11-04T23:11:49.625Z,12.24
2022-11-04T23:14:37.414Z,12.22
2022-11-04T23:17:32.571Z,12.12
2022-11-04T23:20:00.742Z,12.10
2022-11-04T23:22:46.058Z,12.14
2022-11-04T23:25:16.097Z,12.11
2022-11-04T23:28:04.792Z,12.09
2022-11-04T23:30:34.877Z,11.68
2022-11-04T23:33:06.668Z,11.65
2022-11-04T23:35:54.189Z,11.76
2022-11-04T23:38:22.666Z,11.75
2022-11-04T23:41:15.402Z,11.91
2022-11-04T23:43:43.406Z,12.07
2022-11-04T23:46:29.579Z,12.10
2022-11-04T23:49:15.121Z,12.11
2022-11-04T23:52:00.755Z,12.16
2022-11-04T23:54:57.655Z,11.59
2022-11-04T23:57:44.894Z,11.62
